Queen Elizabeth — ZCEF2 — position and weather

sailwx.info

Track history (hours):
 
Tides and Currents Weather Stations Pressure Air Temp Water Temp Dewpoint Dewpoint Depression Visibility Wind Speed Wind Dir Waves Ship Positions

Queen Elizabeth

Last reported at 2019-Jun-16 13:38 UTC. Time now 2019-Jun-17 18:38 UTC.
Position N 59°19' W 139°57'.

Length 294 m; draft 8 m.

Type: Ship. MMSI: 310625000.

Date/timePositionNaut miles runAvg speedWind from/ knotsBaromVisibWave heightAir tempDewpointWater temp
2019-Jun-16 13:38N 59°19' W 139°57'12313.6
2019-Jun-16 04:37N 58°07' W 136°46'214.5
2019-Jun-16 04:29N 58°07' W 136°42'1513.9
2019-Jun-16 03:26N 58°17' W 136°22'716.1
2019-Jun-16 03:00N 58°19' W 136°09'714.6
2019-Jun-16 02:30N 58°19' W 135°55'814.9
2019-Jun-16 02:00N 58°17' W 135°42'815.9
2019-Jun-16 01:30N 58°13' W 135°29'5 9.0
2019-Jun-16 01:00N 58°08' W 135°28'0 0.4
2019-Jun-16 00:24N 58°08' W 135°28'0 0.0
2019-Jun-15 14:38N 58°08' W 135°28'0 0.6
2019-Jun-15 14:27N 58°08' W 135°28'47 1.1
2019-Jun-13 18:00N 58°00' W 134°00'18018.0 150 / 71019.610.8 11.011.010.0
2019-Jun-13 08:00N 55°00' W 133°42'74 6.2 240 / 111018.710.8 10.010.011.0
2019-Jun-12 20:00N 55°18' W 131°36'17 2.3 150 / 21020.9 1.1 13.013.012.0
2019-Jun-12 12:33N 55°01' W 131°44'115.1
2019-Jun-12 12:30N 55°01' W 131°44'15414.6
2019-Jun-12 02:00N 52°30' W 132°36'2720.1 180 / 71024.5 0.0 12.012.012.0
2019-Jun-12 00:39N 52°12' W 132°04'2017.2
2019-Jun-11 23:28N 51°57' W 131°42'1517.1
2019-Jun-11 22:34N 51°45' W 131°25'417.4
2019-Jun-11 22:21N 51°42' W 131°21'1917.5
2019-Jun-11 21:15N 51°28' W 131°00'4821.2
2019-Jun-11 19:00N 51°12' W 129°48'3 5.5 270 / 61031.5 5.4 13.013.013.0
2019-Jun-11 18:26N 51°15' W 129°47'817.7
2019-Jun-11 18:00N 51°13' W 129°35'917.6
2019-Jun-11 17:30N 51°12' W 129°21'917.9
2019-Jun-11 17:01N 51°10' W 129°07'918.6
2019-Jun-11 16:30N 51°08' W 128°53'918.6
2019-Jun-11 16:00N 51°06' W 128°38'917.8
2019-Jun-11 15:31N 51°04' W 128°25'918.0
2019-Jun-11 15:00N 51°02' W 128°10'917.7
2019-Jun-11 14:30N 51°01' W 127°57'714.3
2019-Jun-11 14:01N 50°58' W 127°46'916.3
2019-Jun-11 13:27N 50°52' W 127°35'7517.2
2019-Jun-11 09:07N 50°23' W 125°47'917.7
2019-Jun-11 08:37N 50°22' W 125°33'416.5
2019-Jun-11 08:22N 50°20' W 125°27'514.9
2019-Jun-11 08:00N 50°16' W 125°23'815.1
2019-Jun-11 07:30N 50°08' W 125°21'713.0
2019-Jun-11 07:00N 50°03' W 125°15'510.0
2019-Jun-11 06:30N 49°59' W 125°11'714.6
2019-Jun-11 06:00N 49°53' W 125°03'815.6
2019-Jun-11 05:30N 49°48' W 124°54'815.1
2019-Jun-11 05:00N 49°42' W 124°46'815.6
2019-Jun-11 04:30N 49°37' W 124°39'815.4
2019-Jun-11 04:00N 49°31' W 124°31'815.3
2019-Jun-11 03:30N 49°27' W 124°21'815.5
2019-Jun-11 03:00N 49°24' W 124°10'815.5
2019-Jun-11 02:30N 49°22' W 123°58'815.2
2019-Jun-11 02:00N 49°20' W 123°47'815.2
2019-Jun-11 01:30N 49°19' W 123°35'815.5
2019-Jun-11 01:00N 49°19' W 123°24'815.4
2019-Jun-11 00:31N 49°19' W 123°12'4 8.3
2019-Jun-11 00:01N 49°18' W 123°06'1 1.1
2019-Jun-10 23:28N 49°17' W 123°07'0 0.0
2019-Jun-10 22:58N 49°17' W 123°07'0 0.0
2019-Jun-10 22:28N 49°17' W 123°07'0 0.0
2019-Jun-10 21:58N 49°17' W 123°07'0 0.0
2019-Jun-10 21:28N 49°17' W 123°07'0 0.0
2019-Jun-10 20:58N 49°17' W 123°07'0 0.0
2019-Jun-10 20:28N 49°17' W 123°07'0 0.0
2019-Jun-10 19:58N 49°17' W 123°07'0 0.0
2019-Jun-10 19:28N 49°17' W 123°07'0 0.0
2019-Jun-10 18:58N 49°17' W 123°07'0 0.0
2019-Jun-10 18:28N 49°17' W 123°07'0 0.0
2019-Jun-10 17:58N 49°17' W 123°07'0 0.0
2019-Jun-10 17:28N 49°17' W 123°07'0 0.0
2019-Jun-10 16:58N 49°17' W 123°07'0 0.0
2019-Jun-10 16:28N 49°17' W 123°07'0 0.0
2019-Jun-10 15:58N 49°17' W 123°07'0 0.0
2019-Jun-10 15:28N 49°17' W 123°07'0 0.0
2019-Jun-10 14:58N 49°17' W 123°07'0 0.0
2019-Jun-10 14:25N 49°17' W 123°07'0 0.0
2019-Jun-10 14:00N 49°17' W 123°07'0 0.7
2019-Jun-10 13:30N 49°18' W 123°06'4 7.0
2019-Jun-10 13:00N 49°19' W 123°11'4 8.5
2019-Jun-10 12:30N 49°18' W 123°17'5 9.3
2019-Jun-10 12:00N 49°13' W 123°19'5 9.0
2019-Jun-10 11:30N 49°09' W 123°20'4 8.6
2019-Jun-10 11:00N 49°04' W 123°20'4 7.6
2019-Jun-10 10:30N 49°01' W 123°17'4 7.2
2019-Jun-10 10:00N 48°59' W 123°13'4 7.2
2019-Jun-10 09:30N 48°56' W 123°09'4 7.2
2019-Jun-10 09:00N 48°54' W 123°05'4 7.8
2019-Jun-10 08:30N 48°51' W 123°00'4 7.6
2019-Jun-10 08:00N 48°48' W 122°60'4 7.7
2019-Jun-10 07:30N 48°45' W 123°04'4 8.4
2019-Jun-10 07:00N 48°43' W 123°10'4 7.7
2019-Jun-10 06:30N 48°41' W 123°15'5 9.2
2019-Jun-10 06:00N 48°37' W 123°14'5 9.8
2019-Jun-10 05:30N 48°32' W 123°12'5 9.1
2019-Jun-10 05:00N 48°28' W 123°10'510.3
2019-Jun-10 04:30N 48°23' W 123°14'5 9.9
2019-Jun-10 04:00N 48°24' W 123°22'2 3.4
2019-Jun-10 03:28N 48°25' W 123°24'0 0.0
2019-Jun-10 02:58N 48°25' W 123°24'0 0.0
2019-Jun-10 02:28N 48°25' W 123°24'0 0.0
2019-Jun-10 01:58N 48°25' W 123°24'0 0.0
2019-Jun-10 01:28N 48°25' W 123°24'0 0.0
2019-Jun-10 00:58N 48°25' W 123°24'0 0.0
2019-Jun-10 00:28N 48°25' W 123°24'0 0.0
2019-Jun-09 23:58N 48°25' W 123°24'0 0.0
2019-Jun-09 23:28N 48°25' W 123°24'0 0.0
2019-Jun-09 22:58N 48°25' W 123°24'0 0.0
2019-Jun-09 22:28N 48°25' W 123°24'0 0.0
2019-Jun-09 21:58N 48°25' W 123°24'0 0.0
2019-Jun-09 21:28N 48°25' W 123°24'0 0.0
2019-Jun-09 20:58N 48°25' W 123°24'0 0.0
2019-Jun-09 20:28N 48°25' W 123°24'0 0.0
2019-Jun-09 19:58N 48°25' W 123°24'0 0.0
2019-Jun-09 19:28N 48°25' W 123°24'0 0.0
2019-Jun-09 18:58N 48°25' W 123°24'0 0.0
2019-Jun-09 18:28N 48°25' W 123°24'0 0.0
2019-Jun-09 17:58N 48°25' W 123°24'0 0.0
2019-Jun-09 17:28N 48°25' W 123°24'0 0.0
2019-Jun-09 16:58N 48°25' W 123°24'0 0.0
2019-Jun-09 16:28N 48°25' W 123°24'0 0.0
2019-Jun-09 15:58N 48°25' W 123°24'0 0.0
2019-Jun-09 15:28N 48°25' W 123°24'0 0.0
2019-Jun-09 14:58N 48°25' W 123°24'0 0.0
2019-Jun-09 14:28N 48°25' W 123°24'0 0.0
2019-Jun-09 13:58N 48°25' W 123°24'0 0.3
2019-Jun-09 13:30N 48°25' W 123°24'2 4.0
2019-Jun-09 13:00N 48°23' W 123°23'4 8.6
2019-Jun-09 12:31N 48°19' W 123°25'714.7
2019-Jun-09 12:00N 48°13' W 123°33'915.9
2019-Jun-09 11:27N 48°14' W 123°46'716.2
2019-Jun-09 11:00N 48°14' W 123°57'816.4
2019-Jun-09 10:30N 48°18' W 124°08'816.5
2019-Jun-09 10:01N 48°21' W 124°19'917.0
2019-Jun-09 09:31N 48°24' W 124°31'816.8
2019-Jun-09 09:01N 48°28' W 124°42'816.0
2019-Jun-09 08:31N 48°29' W 124°54'816.5
2019-Jun-09 08:01N 48°28' W 125°07'917.8
2019-Jun-09 07:31N 48°29' W 125°20'816.6
2019-Jun-09 07:00N 48°31' W 125°32'917.2
2019-Jun-09 06:31N 48°36' W 125°42'917.5
2019-Jun-09 06:01N 48°42' W 125°52'16981.4
2019-Jun-09 06:00N 48°30' W 125°36'2552.7 310 / 81035.1 5.4 12.0 7.913.0
2019-Jun-09 05:31N 48°48' W 126°03'918.2
2019-Jun-09 05:01N 48°53' W 126°14'1818.1
2019-Jun-09 04:00N 49°04' W 126°37'918.0
2019-Jun-09 03:30N 49°10' W 126°48'11817.6
2019-Jun-08 20:47N 50°26' W 129°07'517.8
2019-Jun-08 20:29N 50°29' W 129°13'1017.3
2019-Jun-08 19:53N 50°38' W 129°22'1117.2
2019-Jun-08 19:14N 50°48' W 129°29'623.5
2019-Jun-08 19:00N 50°54' W 129°30'122.5 270 / 111031.8 5.4 12.010.113.0
2019-Jun-08 18:56N 50°53' W 129°32'817.7
2019-Jun-08 18:30N 51°01' W 129°36'917.9
2019-Jun-08 17:58N 51°09' W 129°41'817.4
2019-Jun-08 17:31N 51°17' W 129°45'917.3
2019-Jun-08 17:00N 51°25' W 129°50'917.9
2019-Jun-08 16:30N 51°34' W 129°55'917.7
2019-Jun-08 16:00N 51°42' W 129°59'917.9
2019-Jun-08 15:30N 51°51' W 130°04'917.7
2019-Jun-08 15:01N 51°59' W 130°09'2121.4
2019-Jun-08 15:00N 52°00' W 130°06'917.7 280 / 81025.710.8 12.010.112.0
2019-Jun-08 14:31N 52°07' W 130°13'6717.6
2019-Jun-08 10:41N 53°12' W 130°45'317.5
2019-Jun-08 10:30N 53°15' W 130°46'917.3
2019-Jun-08 10:00N 53°23' W 130°50'917.0
2019-Jun-08 09:29N 53°32' W 130°53'816.9
2019-Jun-08 09:00N 53°40' W 130°56'917.2
2019-Jun-08 08:30N 53°48' W 130°58'917.1
2019-Jun-08 08:00N 53°57' W 131°01'917.6
2019-Jun-08 07:31N 54°05' W 131°01'917.4
2019-Jun-08 07:00N 54°14' W 131°03'8516.7
2019-Jun-08 07:00N 54°06' W 131°00'1531.6 270 / 121026.810.8 11.0 9.010.0
2019-Jun-08 06:30N 54°19' W 131°13'917.9
2019-Jun-08 06:00N 54°24' W 131°26'917.6
2019-Jun-08 05:30N 54°28' W 131°39'916.8
2019-Jun-08 04:59N 54°36' W 131°43'917.6
2019-Jun-08 04:29N 54°45' W 131°44'918.0
2019-Jun-08 04:00N 54°54' W 131°44'99 4.7
2019-Jun-07 07:00N 56°00' W 133°54'   250 / 211018.410.8 10.0 7.9 9.0
Track history (hours):
 
Tides and Currents Weather Stations Pressure Air Temp Water Temp Dewpoint Dewpoint Depression Visibility Wind Speed Wind Dir Waves Ship Positions

Queen Elizabeth

Last reported at 2019-Jun-16 13:38 UTC. Time now 2019-Jun-17 18:38 UTC.
Position N 59°19' W 139°57'.

Length 294 m; draft 8 m.

Type: Ship. MMSI: 310625000.

Date/timePositionNaut miles runAvg speedWind from/ knotsBaromVisibWave heightAir tempDewpointWater temp
2019-Jun-16 13:38N 59°19' W 139°57'12313.6
2019-Jun-16 04:37N 58°07' W 136°46'214.5
2019-Jun-16 04:29N 58°07' W 136°42'1513.9
2019-Jun-16 03:26N 58°17' W 136°22'716.1
2019-Jun-16 03:00N 58°19' W 136°09'714.6
2019-Jun-16 02:30N 58°19' W 135°55'814.9
2019-Jun-16 02:00N 58°17' W 135°42'815.9
2019-Jun-16 01:30N 58°13' W 135°29'5 9.0
2019-Jun-16 01:00N 58°08' W 135°28'0 0.4
2019-Jun-16 00:24N 58°08' W 135°28'0 0.0
2019-Jun-15 14:38N 58°08' W 135°28'0 0.6
2019-Jun-15 14:27N 58°08' W 135°28'47 1.1
2019-Jun-13 18:00N 58°00' W 134°00'18018.0 150 / 71019.610.8 11.011.010.0
2019-Jun-13 08:00N 55°00' W 133°42'74 6.2 240 / 111018.710.8 10.010.011.0
2019-Jun-12 20:00N 55°18' W 131°36'17 2.3 150 / 21020.9 1.1 13.013.012.0
2019-Jun-12 12:33N 55°01' W 131°44'115.1
2019-Jun-12 12:30N 55°01' W 131°44'15414.6
2019-Jun-12 02:00N 52°30' W 132°36'2720.1 180 / 71024.5 0.0 12.012.012.0
2019-Jun-12 00:39N 52°12' W 132°04'2017.2
2019-Jun-11 23:28N 51°57' W 131°42'1517.1
2019-Jun-11 22:34N 51°45' W 131°25'417.4
2019-Jun-11 22:21N 51°42' W 131°21'1917.5
2019-Jun-11 21:15N 51°28' W 131°00'4821.2
2019-Jun-11 19:00N 51°12' W 129°48'3 5.5 270 / 61031.5 5.4 13.013.013.0
2019-Jun-11 18:26N 51°15' W 129°47'817.7
2019-Jun-11 18:00N 51°13' W 129°35'917.6
2019-Jun-11 17:30N 51°12' W 129°21'917.9
2019-Jun-11 17:01N 51°10' W 129°07'918.6
2019-Jun-11 16:30N 51°08' W 128°53'918.6
2019-Jun-11 16:00N 51°06' W 128°38'917.8
2019-Jun-11 15:31N 51°04' W 128°25'918.0
2019-Jun-11 15:00N 51°02' W 128°10'917.7
2019-Jun-11 14:30N 51°01' W 127°57'714.3
2019-Jun-11 14:01N 50°58' W 127°46'916.3
2019-Jun-11 13:27N 50°52' W 127°35'7517.2
2019-Jun-11 09:07N 50°23' W 125°47'917.7
2019-Jun-11 08:37N 50°22' W 125°33'416.5
2019-Jun-11 08:22N 50°20' W 125°27'514.9
2019-Jun-11 08:00N 50°16' W 125°23'815.1
2019-Jun-11 07:30N 50°08' W 125°21'713.0
2019-Jun-11 07:00N 50°03' W 125°15'510.0
2019-Jun-11 06:30N 49°59' W 125°11'714.6
2019-Jun-11 06:00N 49°53' W 125°03'815.6
2019-Jun-11 05:30N 49°48' W 124°54'815.1
2019-Jun-11 05:00N 49°42' W 124°46'815.6
2019-Jun-11 04:30N 49°37' W 124°39'815.4
2019-Jun-11 04:00N 49°31' W 124°31'815.3
2019-Jun-11 03:30N 49°27' W 124°21'815.5
2019-Jun-11 03:00N 49°24' W 124°10'815.5
2019-Jun-11 02:30N 49°22' W 123°58'815.2
2019-Jun-11 02:00N 49°20' W 123°47'815.2
2019-Jun-11 01:30N 49°19' W 123°35'815.5
2019-Jun-11 01:00N 49°19' W 123°24'815.4
2019-Jun-11 00:31N 49°19' W 123°12'4 8.3
2019-Jun-11 00:01N 49°18' W 123°06'1 1.1
2019-Jun-10 23:28N 49°17' W 123°07'0 0.0
2019-Jun-10 22:58N 49°17' W 123°07'0 0.0
2019-Jun-10 22:28N 49°17' W 123°07'0 0.0
2019-Jun-10 21:58N 49°17' W 123°07'0 0.0
2019-Jun-10 21:28N 49°17' W 123°07'0 0.0
2019-Jun-10 20:58N 49°17' W 123°07'0 0.0
2019-Jun-10 20:28N 49°17' W 123°07'0 0.0
2019-Jun-10 19:58N 49°17' W 123°07'0 0.0
2019-Jun-10 19:28N 49°17' W 123°07'0 0.0
2019-Jun-10 18:58N 49°17' W 123°07'0 0.0
2019-Jun-10 18:28N 49°17' W 123°07'0 0.0
2019-Jun-10 17:58N 49°17' W 123°07'0 0.0
2019-Jun-10 17:28N 49°17' W 123°07'0 0.0
2019-Jun-10 16:58N 49°17' W 123°07'0 0.0
2019-Jun-10 16:28N 49°17' W 123°07'0 0.0
2019-Jun-10 15:58N 49°17' W 123°07'0 0.0
2019-Jun-10 15:28N 49°17' W 123°07'0 0.0
2019-Jun-10 14:58N 49°17' W 123°07'0 0.0
2019-Jun-10 14:25N 49°17' W 123°07'0 0.0
2019-Jun-10 14:00N 49°17' W 123°07'0 0.7
2019-Jun-10 13:30N 49°18' W 123°06'4 7.0
2019-Jun-10 13:00N 49°19' W 123°11'4 8.5
2019-Jun-10 12:30N 49°18' W 123°17'5 9.3
2019-Jun-10 12:00N 49°13' W 123°19'5 9.0
2019-Jun-10 11:30N 49°09' W 123°20'4 8.6
2019-Jun-10 11:00N 49°04' W 123°20'4 7.6
2019-Jun-10 10:30N 49°01' W 123°17'4 7.2
2019-Jun-10 10:00N 48°59' W 123°13'4 7.2
2019-Jun-10 09:30N 48°56' W 123°09'4 7.2
2019-Jun-10 09:00N 48°54' W 123°05'4 7.8
2019-Jun-10 08:30N 48°51' W 123°00'4 7.6
2019-Jun-10 08:00N 48°48' W 122°60'4 7.7
2019-Jun-10 07:30N 48°45' W 123°04'4 8.4
2019-Jun-10 07:00N 48°43' W 123°10'4 7.7
2019-Jun-10 06:30N 48°41' W 123°15'5 9.2
2019-Jun-10 06:00N 48°37' W 123°14'5 9.8
2019-Jun-10 05:30N 48°32' W 123°12'5 9.1
2019-Jun-10 05:00N 48°28' W 123°10'510.3
2019-Jun-10 04:30N 48°23' W 123°14'5 9.9
2019-Jun-10 04:00N 48°24' W 123°22'2 3.4
2019-Jun-10 03:28N 48°25' W 123°24'0 0.0
2019-Jun-10 02:58N 48°25' W 123°24'0 0.0
2019-Jun-10 02:28N 48°25' W 123°24'0 0.0
2019-Jun-10 01:58N 48°25' W 123°24'0 0.0
2019-Jun-10 01:28N 48°25' W 123°24'0 0.0
2019-Jun-10 00:58N 48°25' W 123°24'0 0.0
2019-Jun-10 00:28N 48°25' W 123°24'0 0.0
2019-Jun-09 23:58N 48°25' W 123°24'0 0.0
2019-Jun-09 23:28N 48°25' W 123°24'0 0.0
2019-Jun-09 22:58N 48°25' W 123°24'0 0.0
2019-Jun-09 22:28N 48°25' W 123°24'0 0.0
2019-Jun-09 21:58N 48°25' W 123°24'0 0.0
2019-Jun-09 21:28N 48°25' W 123°24'0 0.0
2019-Jun-09 20:58N 48°25' W 123°24'0 0.0
2019-Jun-09 20:28N 48°25' W 123°24'0 0.0
2019-Jun-09 19:58N 48°25' W 123°24'0 0.0
2019-Jun-09 19:28N 48°25' W 123°24'0 0.0
2019-Jun-09 18:58N 48°25' W 123°24'0 0.0
2019-Jun-09 18:28N 48°25' W 123°24'0 0.0
2019-Jun-09 17:58N 48°25' W 123°24'0 0.0
2019-Jun-09 17:28N 48°25' W 123°24'0 0.0
2019-Jun-09 16:58N 48°25' W 123°24'0 0.0
2019-Jun-09 16:28N 48°25' W 123°24'0 0.0
2019-Jun-09 15:58N 48°25' W 123°24'0 0.0
2019-Jun-09 15:28N 48°25' W 123°24'0 0.0
2019-Jun-09 14:58N 48°25' W 123°24'0 0.0
2019-Jun-09 14:28N 48°25' W 123°24'0 0.0
2019-Jun-09 13:58N 48°25' W 123°24'0 0.3
2019-Jun-09 13:30N 48°25' W 123°24'2 4.0
2019-Jun-09 13:00N 48°23' W 123°23'4 8.6
2019-Jun-09 12:31N 48°19' W 123°25'714.7
2019-Jun-09 12:00N 48°13' W 123°33'915.9
2019-Jun-09 11:27N 48°14' W 123°46'716.2
2019-Jun-09 11:00N 48°14' W 123°57'816.4
2019-Jun-09 10:30N 48°18' W 124°08'816.5
2019-Jun-09 10:01N 48°21' W 124°19'917.0
2019-Jun-09 09:31N 48°24' W 124°31'816.8
2019-Jun-09 09:01N 48°28' W 124°42'816.0
2019-Jun-09 08:31N 48°29' W 124°54'816.5
2019-Jun-09 08:01N 48°28' W 125°07'917.8
2019-Jun-09 07:31N 48°29' W 125°20'816.6
2019-Jun-09 07:00N 48°31' W 125°32'917.2
2019-Jun-09 06:31N 48°36' W 125°42'917.5
2019-Jun-09 06:01N 48°42' W 125°52'16981.4
2019-Jun-09 06:00N 48°30' W 125°36'2552.7 310 / 81035.1 5.4 12.0 7.913.0
2019-Jun-09 05:31N 48°48' W 126°03'918.2
2019-Jun-09 05:01N 48°53' W 126°14'1818.1
2019-Jun-09 04:00N 49°04' W 126°37'918.0
2019-Jun-09 03:30N 49°10' W 126°48'11817.6
2019-Jun-08 20:47N 50°26' W 129°07'517.8
2019-Jun-08 20:29N 50°29' W 129°13'1017.3
2019-Jun-08 19:53N 50°38' W 129°22'1117.2
2019-Jun-08 19:14N 50°48' W 129°29'623.5
2019-Jun-08 19:00N 50°54' W 129°30'122.5 270 / 111031.8 5.4 12.010.113.0
2019-Jun-08 18:56N 50°53' W 129°32'817.7
2019-Jun-08 18:30N 51°01' W 129°36'917.9
2019-Jun-08 17:58N 51°09' W 129°41'817.4
2019-Jun-08 17:31N 51°17' W 129°45'917.3
2019-Jun-08 17:00N 51°25' W 129°50'917.9
2019-Jun-08 16:30N 51°34' W 129°55'917.7
2019-Jun-08 16:00N 51°42' W 129°59'917.9
2019-Jun-08 15:30N 51°51' W 130°04'917.7
2019-Jun-08 15:01N 51°59' W 130°09'2121.4
2019-Jun-08 15:00N 52°00' W 130°06'917.7 280 / 81025.710.8 12.010.112.0
2019-Jun-08 14:31N 52°07' W 130°13'6717.6
2019-Jun-08 10:41N 53°12' W 130°45'317.5
2019-Jun-08 10:30N 53°15' W 130°46'917.3
2019-Jun-08 10:00N 53°23' W 130°50'917.0
2019-Jun-08 09:29N 53°32' W 130°53'816.9
2019-Jun-08 09:00N 53°40' W 130°56'917.2
2019-Jun-08 08:30N 53°48' W 130°58'917.1
2019-Jun-08 08:00N 53°57' W 131°01'917.6
2019-Jun-08 07:31N 54°05' W 131°01'917.4
2019-Jun-08 07:00N 54°14' W 131°03'8516.7
2019-Jun-08 07:00N 54°06' W 131°00'1531.6 270 / 121026.810.8 11.0 9.010.0
2019-Jun-08 06:30N 54°19' W 131°13'917.9
2019-Jun-08 06:00N 54°24' W 131°26'917.6
2019-Jun-08 05:30N 54°28' W 131°39'916.8
2019-Jun-08 04:59N 54°36' W 131°43'917.6
2019-Jun-08 04:29N 54°45' W 131°44'918.0
2019-Jun-08 04:00N 54°54' W 131°44'99 4.7
2019-Jun-07 07:00N 56°00' W 133°54'   250 / 211018.410.8 10.0 7.9 9.0

Dump ship's entire track history